createdAt,value
2019-03-08T00:02:24.639Z,0.98
2019-03-08T00:04:53.015Z,1.17
2019-03-08T00:07:21.401Z,1.00
2019-03-08T00:09:49.812Z,1.00
2019-03-08T00:12:18.198Z,0.80
2019-03-08T00:14:46.566Z,1.02
2019-03-08T00:17:14.939Z,1.00
2019-03-08T00:19:43.321Z,0.85
2019-03-08T00:22:11.691Z,1.20
2019-03-08T00:24:40.082Z,0.70
2019-03-08T00:27:08.527Z,1.42
2019-03-08T00:29:36.917Z,0.93
2019-03-08T00:32:05.351Z,0.70
2019-03-08T00:34:33.762Z,0.70
2019-03-08T00:37:02.136Z,0.70
2019-03-08T00:39:30.520Z,0.55
2019-03-08T00:41:58.897Z,0.82
2019-03-08T00:44:27.284Z,0.88
2019-03-08T00:46:55.659Z,0.70
2019-03-08T00:49:24.052Z,0.80
2019-03-08T00:51:52.438Z,1.00
2019-03-08T00:54:20.888Z,0.65
2019-03-08T00:56:49.270Z,0.70
2019-03-08T00:59:17.964Z,0.62
2019-03-08T01:01:46.335Z,0.68
2019-03-08T01:04:14.791Z,0.65
2019-03-08T01:06:43.204Z,1.00
2019-03-08T01:09:11.715Z,0.57
2019-03-08T01:11:40.164Z,0.90
2019-03-08T01:14:08.553Z,1.15
2019-03-08T01:16:37.241Z,0.72
2019-03-08T01:19:05.629Z,0.80
2019-03-08T01:21:34.007Z,0.82
2019-03-08T01:24:02.372Z,0.85
2019-03-08T01:26:31.035Z,0.53
2019-03-08T01:28:59.559Z,0.68
2019-03-08T01:31:27.943Z,0.70
2019-03-08T01:33:56.319Z,0.93
2019-03-08T01:36:24.695Z,0.42
2019-03-08T01:38:53.076Z,0.60
2019-03-08T01:41:21.455Z,0.80
2019-03-08T01:43:49.835Z,0.60
2019-03-08T01:46:18.228Z,0.50
2019-03-08T01:48:46.628Z,0.70
2019-03-08T01:51:15.016Z,0.50
2019-03-08T01:53:43.392Z,0.42
2019-03-08T01:56:11.860Z,0.47
2019-03-08T01:58:40.229Z,0.70
2019-03-08T02:01:08.688Z,0.60
2019-03-08T02:03:37.064Z,0.60
2019-03-08T02:06:05.455Z,0.33
2019-03-08T02:08:33.835Z,0.78
2019-03-08T02:11:02.299Z,0.78
2019-03-08T02:13:30.671Z,0.50
2019-03-08T02:15:59.071Z,0.80
2019-03-08T02:18:27.449Z,0.50
2019-03-08T02:20:55.833Z,0.50
2019-03-08T02:23:24.208Z,0.90
2019-03-08T02:25:52.771Z,0.40
2019-03-08T02:28:21.145Z,0.62
2019-03-08T02:30:49.531Z,0.50
2019-03-08T02:33:17.899Z,0.82
2019-03-08T02:35:46.306Z,0.70
2019-03-08T02:38:14.675Z,0.50
2019-03-08T02:40:43.324Z,0.80
2019-03-08T02:43:13.944Z,0.70
2019-03-08T02:48:09.995Z,0.80
2019-03-08T02:50:38.372Z,0.80
2019-03-08T02:53:06.755Z,0.70
2019-03-08T02:55:35.479Z,0.60
2019-03-08T02:58:04.392Z,0.88
2019-03-08T03:00:35.124Z,0.70
2019-03-08T03:03:03.487Z,0.98
2019-03-08T03:05:31.863Z,0.57
2019-03-08T03:08:00.249Z,0.53
2019-03-08T03:10:28.628Z,1.22
2019-03-08T03:12:57.015Z,0.80
2019-03-08T03:15:25.468Z,1.25
2019-03-08T03:17:53.854Z,0.47
2019-03-08T03:20:22.236Z,0.98
2019-03-08T03:22:50.633Z,1.30
2019-03-08T03:25:18.998Z,0.82
2019-03-08T03:27:47.392Z,1.10
2019-03-08T03:30:20.964Z,1.05
2019-03-08T03:32:49.398Z,1.27
2019-03-08T03:35:17.774Z,1.05
2019-03-08T03:37:46.535Z,1.00
2019-03-08T03:40:16.652Z,1.20
2019-03-08T03:42:45.040Z,0.80
2019-03-08T03:45:20.634Z,0.88
2019-03-08T03:47:49.012Z,1.02
2019-03-08T03:50:18.551Z,1.47
2019-03-08T03:52:47.323Z,1.10
2019-03-08T03:55:17.909Z,0.90
2019-03-08T04:00:21.508Z,1.05
2019-03-08T04:02:49.879Z,1.00
2019-03-08T04:05:18.422Z,1.47
2019-03-08T04:07:46.785Z,1.60
2019-03-08T04:10:16.115Z,1.10
2019-03-08T04:12:44.499Z,1.05
2019-03-08T04:15:20.338Z,1.02
2019-03-08T04:17:48.880Z,1.17
2019-03-08T04:20:18.376Z,1.65
2019-03-08T04:22:46.766Z,0.90
2019-03-08T04:25:15.311Z,1.25
2019-03-08T04:27:43.700Z,0.95
2019-03-08T04:30:17.070Z,0.85
2019-03-08T04:32:45.514Z,1.20
2019-03-08T04:35:13.900Z,1.20
2019-03-08T04:37:42.280Z,1.17
2019-03-08T04:40:12.965Z,1.12
2019-03-08T04:42:41.351Z,1.25
2019-03-08T04:45:12.148Z,1.20
2019-03-08T04:47:40.531Z,1.30
2019-03-08T04:50:10.955Z,1.22
2019-03-08T04:52:39.331Z,1.32
2019-03-08T04:55:11.059Z,1.32
2019-03-08T04:57:39.432Z,2.72
2019-03-08T05:00:11.433Z,2.65
2019-03-08T05:02:39.800Z,1.10
2019-03-08T05:05:08.377Z,1.00
2019-03-08T05:07:36.747Z,1.00
2019-03-08T05:10:08.211Z,1.50
2019-03-08T05:12:36.661Z,1.77
2019-03-08T05:15:06.282Z,1.30
2019-03-08T05:17:34.656Z,1.27
2019-03-08T05:20:03.115Z,0.85
2019-03-08T05:22:31.505Z,1.20
2019-03-08T05:24:59.879Z,0.90
2019-03-08T05:27:28.291Z,1.00
2019-03-08T05:29:56.643Z,1.80
2019-03-08T05:32:25.030Z,1.22
2019-03-08T05:34:53.409Z,1.37
2019-03-08T05:37:22.659Z,1.35
2019-03-08T05:39:51.035Z,1.52
2019-03-08T05:42:19.422Z,1.07
2019-03-08T05:44:47.800Z,1.10
2019-03-08T05:47:16.183Z,0.98
2019-03-08T05:49:44.556Z,0.90
2019-03-08T05:52:12.941Z,1.05
2019-03-08T05:54:41.676Z,1.25
2019-03-08T05:57:10.068Z,1.35
2019-03-08T05:59:38.728Z,1.32
2019-03-08T06:02:07.210Z,1.22
2019-03-08T06:04:35.582Z,1.35
2019-03-08T06:07:04.028Z,2.25
2019-03-08T06:09:32.395Z,1.17
2019-03-08T06:12:00.787Z,1.10
2019-03-08T06:14:29.540Z,1.12
2019-03-08T06:16:58.223Z,1.20
2019-03-08T06:19:26.593Z,1.32
2019-03-08T06:21:54.976Z,0.93
2019-03-08T06:24:23.354Z,1.17
2019-03-08T06:26:51.755Z,0.80
2019-03-08T06:29:20.138Z,1.12
2019-03-08T06:31:48.508Z,1.15
2019-03-08T06:34:16.919Z,0.82
2019-03-08T06:36:45.300Z,1.27
2019-03-08T06:39:13.725Z,1.45
2019-03-08T06:41:42.318Z,1.50
2019-03-08T06:44:10.712Z,1.27
2019-03-08T06:46:39.401Z,1.42
2019-03-08T06:49:07.794Z,2.27
2019-03-08T06:51:36.161Z,1.77
2019-03-08T06:54:04.618Z,1.00
2019-03-08T06:56:32.989Z,1.20
2019-03-08T06:59:03.015Z,1.32
2019-03-08T07:01:32.319Z,1.35
2019-03-08T07:04:00.701Z,1.70
2019-03-08T07:06:29.090Z,1.05
2019-03-08T07:08:57.477Z,1.75
2019-03-08T07:11:25.858Z,1.45
2019-03-08T07:13:54.235Z,1.15
2019-03-08T07:16:22.691Z,1.10
2019-03-08T07:18:51.867Z,2.05
2019-03-08T07:21:27.612Z,1.15
2019-03-08T07:23:57.643Z,1.50
2019-03-08T07:26:43.847Z,1.50
2019-03-08T07:29:16.814Z,1.40
2019-03-08T07:31:46.855Z,1.12
2019-03-08T07:34:20.004Z,1.25
2019-03-08T07:36:56.421Z,1.32
2019-03-08T07:39:32.041Z,1.67
2019-03-08T07:42:18.441Z,1.30
2019-03-08T07:44:53.907Z,1.55
2019-03-08T07:47:29.377Z,1.60
2019-03-08T07:50:05.142Z,1.40
2019-03-08T07:52:51.404Z,1.27
2019-03-08T07:55:30.876Z,1.50
2019-03-08T07:58:17.086Z,1.35
2019-03-08T08:00:53.236Z,1.00
2019-03-08T08:03:28.867Z,1.30
2019-03-08T08:06:04.990Z,1.32
2019-03-08T08:08:37.953Z,1.10
2019-03-08T08:11:10.996Z,1.32
2019-03-08T08:13:41.062Z,0.88
2019-03-08T08:16:27.184Z,1.47
2019-03-08T08:19:03.332Z,0.93
2019-03-08T08:21:36.344Z,1.10
2019-03-08T08:24:09.425Z,1.10
2019-03-08T08:26:51.035Z,1.17
2019-03-08T08:29:23.995Z,1.10
2019-03-08T08:31:54.065Z,0.90
2019-03-08T08:34:24.344Z,1.70
2019-03-08T08:37:06.514Z,0.90
2019-03-08T08:39:48.013Z,1.20
2019-03-08T08:42:35.708Z,1.07
2019-03-08T08:45:14.287Z,1.47
2019-03-08T08:47:56.442Z,1.25
2019-03-08T08:50:42.994Z,0.98
2019-03-08T08:53:18.807Z,1.25
2019-03-08T08:56:05.643Z,0.60
2019-03-08T08:58:52.221Z,0.70
2019-03-08T09:01:22.600Z,1.00
2019-03-08T09:06:44.954Z,1.07
2019-03-08T09:09:15.229Z,1.10
2019-03-08T09:11:52.135Z,0.72
2019-03-08T09:14:22.763Z,1.15
2019-03-08T09:16:54.152Z,0.80
2019-03-08T09:19:33.462Z,1.57
2019-03-08T09:22:18.837Z,1.15
2019-03-08T09:24:48.937Z,0.85
2019-03-08T09:27:22.799Z,1.62
2019-03-08T09:29:52.835Z,1.05
2019-03-08T09:32:23.251Z,1.10
2019-03-08T09:35:08.261Z,0.88
2019-03-08T09:37:41.094Z,1.47
2019-03-08T09:40:20.685Z,0.90
2019-03-08T09:42:50.691Z,0.85
2019-03-08T09:45:20.807Z,1.27
2019-03-08T09:48:07.137Z,1.15
2019-03-08T09:50:43.598Z,1.27
2019-03-08T09:53:13.629Z,1.40
2019-03-08T09:56:01.635Z,1.40
2019-03-08T09:58:31.666Z,1.05
2019-03-08T10:01:16.651Z,1.07
2019-03-08T10:03:46.656Z,1.42
2019-03-08T10:06:29.291Z,1.50
2019-03-08T10:09:02.456Z,1.35
2019-03-08T10:11:32.512Z,1.12
2019-03-08T10:14:18.987Z,1.22
2019-03-08T10:16:51.981Z,1.20
2019-03-08T10:19:41.396Z,1.00
2019-03-08T10:22:26.628Z,1.70
2019-03-08T10:24:56.924Z,1.40
2019-03-08T10:27:43.351Z,1.27
2019-03-08T10:30:22.690Z,1.25
2019-03-08T10:33:01.683Z,1.30
2019-03-08T10:35:37.579Z,1.05
2019-03-08T10:38:22.730Z,1.05
2019-03-08T10:41:06.368Z,1.00
2019-03-08T10:43:41.976Z,1.00
2019-03-08T10:46:27.164Z,1.02
2019-03-08T10:48:57.395Z,1.07
2019-03-08T10:51:33.445Z,1.67
2019-03-08T10:54:06.452Z,1.00
2019-03-08T10:56:52.580Z,1.25
2019-03-08T10:59:25.559Z,1.20
2019-03-08T11:02:04.059Z,1.05
2019-03-08T11:04:36.759Z,1.20
2019-03-08T11:07:06.794Z,1.02
2019-03-08T11:09:54.023Z,1.20
2019-03-08T11:12:36.303Z,1.00
2019-03-08T11:15:25.620Z,1.10
2019-03-08T11:17:55.712Z,1.02
2019-03-08T11:20:28.522Z,2.08
2019-03-08T11:22:58.552Z,1.12
2019-03-08T11:25:34.725Z,1.00
2019-03-08T11:28:21.269Z,1.32
2019-03-08T11:31:06.519Z,1.40
2019-03-08T11:33:54.821Z,1.52
2019-03-08T11:36:27.306Z,2.02
2019-03-08T11:38:57.344Z,1.42
2019-03-08T11:41:27.375Z,1.27
2019-03-08T11:44:13.827Z,1.50
2019-03-08T11:46:43.859Z,1.72
2019-03-08T11:49:26.085Z,1.20
2019-03-08T11:51:58.848Z,1.15
2019-03-08T11:54:40.377Z,0.80
2019-03-08T11:57:13.903Z,1.17
2019-03-08T12:02:25.152Z,1.50
2019-03-08T12:05:03.677Z,1.20
2019-03-08T12:07:39.616Z,0.95
2019-03-08T12:10:14.635Z,1.05
2019-03-08T12:12:53.232Z,1.00
2019-03-08T12:15:25.963Z,1.10
2019-03-08T12:18:01.965Z,0.80
2019-03-08T12:20:37.976Z,1.27
2019-03-08T12:23:17.056Z,0.82
2019-03-08T12:25:52.811Z,1.02
2019-03-08T12:28:22.852Z,1.07
2019-03-08T12:31:01.509Z,0.90
2019-03-08T12:33:37.307Z,0.90
2019-03-08T12:36:10.279Z,1.27
2019-03-08T12:38:46.512Z,1.02
2019-03-08T12:41:22.199Z,1.40
2019-03-08T12:44:08.590Z,0.90
2019-03-08T12:46:38.779Z,1.15
2019-03-08T12:49:08.898Z,1.17
2019-03-08T12:51:48.128Z,0.95
2019-03-08T12:54:21.120Z,1.00
2019-03-08T12:56:57.423Z,1.02
2019-03-08T12:59:43.555Z,1.30
2019-03-08T13:02:28.503Z,1.87
2019-03-08T13:05:14.713Z,1.10
2019-03-08T13:08:02.859Z,2.00
2019-03-08T13:10:31.256Z,1.12
2019-03-08T13:12:59.640Z,1.05
2019-03-08T13:15:28.041Z,1.10
2019-03-08T13:17:56.431Z,1.20
2019-03-08T13:20:24.841Z,1.00
2019-03-08T13:22:53.228Z,1.45
2019-03-08T13:25:21.697Z,1.15
2019-03-08T13:27:50.076Z,1.27
2019-03-08T13:30:21.265Z,1.12
2019-03-08T13:32:49.657Z,1.45
2019-03-08T13:35:18.044Z,1.15
2019-03-08T13:37:46.433Z,1.00
2019-03-08T13:40:16.239Z,1.25
2019-03-08T13:42:44.619Z,0.90
2019-03-08T13:45:16.196Z,1.00
2019-03-08T13:47:44.585Z,1.42
2019-03-08T13:50:14.714Z,0.93
2019-03-08T13:52:43.189Z,2.37
2019-03-08T13:55:14.497Z,0.80
2019-03-08T13:57:43.237Z,1.22
2019-03-08T14:00:17.067Z,1.25
2019-03-08T14:02:45.474Z,1.17
2019-03-08T14:05:14.286Z,1.20
2019-03-08T14:07:42.730Z,1.30
2019-03-08T14:10:19.998Z,1.05
2019-03-08T14:12:48.383Z,1.35
2019-03-08T14:15:17.600Z,1.70
2019-03-08T14:17:45.994Z,1.62
2019-03-08T14:20:26.429Z,2.08
2019-03-08T14:22:54.828Z,1.67
2019-03-08T14:25:23.217Z,1.55
2019-03-08T14:27:51.614Z,1.37
2019-03-08T14:30:32.075Z,1.62
2019-03-08T14:35:30.980Z,1.37
2019-03-08T14:37:59.487Z,1.00
2019-03-08T14:40:32.440Z,1.60
2019-03-08T14:43:17.983Z,1.55
2019-03-08T14:46:04.415Z,1.55
2019-03-08T14:48:32.783Z,1.47
2019-03-08T14:51:01.258Z,1.52
2019-03-08T14:53:32.737Z,1.50
2019-03-08T14:55:59.988Z,1.60
2019-03-08T14:58:28.498Z,2.00
2019-03-08T15:00:56.887Z,1.75
2019-03-08T15:03:25.283Z,2.33
2019-03-08T15:05:54.878Z,1.22
2019-03-08T15:08:23.779Z,1.70
2019-03-08T15:10:52.157Z,1.60
2019-03-08T15:13:24.121Z,1.57
2019-03-08T15:15:50.660Z,1.77
2019-03-08T15:18:19.064Z,1.47
2019-03-08T15:20:47.465Z,1.35
2019-03-08T15:23:17.098Z,1.52
2019-03-08T15:25:48.976Z,1.45
2019-03-08T15:28:16.141Z,1.22
2019-03-08T15:30:44.697Z,1.42
2019-03-08T15:33:13.097Z,1.27
2019-03-08T15:35:41.479Z,2.10
2019-03-08T15:38:10.267Z,1.32
2019-03-08T15:40:38.659Z,1.65
2019-03-08T15:43:09.701Z,1.37
2019-03-08T15:45:40.148Z,2.00
2019-03-08T15:48:10.819Z,1.85
2019-03-08T15:50:37.421Z,1.62
2019-03-08T15:53:05.804Z,1.55
2019-03-08T15:55:34.188Z,1.87
2019-03-08T15:58:02.652Z,1.50
2019-03-08T16:00:31.037Z,2.22
2019-03-08T16:02:59.477Z,1.47
2019-03-08T16:05:29.731Z,1.30
2019-03-08T16:08:01.636Z,1.42
2019-03-08T16:10:28.124Z,1.27
2019-03-08T16:12:56.617Z,1.80
2019-03-08T16:15:24.995Z,1.55
2019-03-08T16:17:53.387Z,1.07
2019-03-08T16:20:22.503Z,1.52
2019-03-08T16:22:50.911Z,1.60
2019-03-08T16:25:19.363Z,1.40
2019-03-08T16:27:47.772Z,1.57
2019-03-08T16:30:23.433Z,1.77
2019-03-08T16:32:53.798Z,1.67
2019-03-08T16:37:57.320Z,2.25
2019-03-08T16:40:29.912Z,1.60
2019-03-08T16:42:59.722Z,1.42
2019-03-08T16:45:32.431Z,1.35
2019-03-08T16:48:17.363Z,1.30
2019-03-08T16:50:47.232Z,1.20
2019-03-08T16:53:28.947Z,1.62
2019-03-08T16:56:12.423Z,1.17
2019-03-08T16:58:42.453Z,1.25
2019-03-08T17:01:28.494Z,1.30
2019-03-08T17:04:04.067Z,1.15
2019-03-08T17:06:34.083Z,1.37
2019-03-08T17:09:04.122Z,2.37
2019-03-08T17:11:39.887Z,1.65
2019-03-08T17:14:12.884Z,2.12
2019-03-08T17:16:42.898Z,1.50
2019-03-08T17:19:15.842Z,1.27
2019-03-08T17:21:48.855Z,1.35
2019-03-08T17:24:18.888Z,1.85
2019-03-08T17:27:06.936Z,2.05
2019-03-08T17:29:36.971Z,2.58
2019-03-08T17:32:18.955Z,2.00
2019-03-08T17:34:49.000Z,2.45
2019-03-08T17:37:19.026Z,2.27
2019-03-08T17:39:51.734Z,2.05
2019-03-08T17:42:36.821Z,1.80
2019-03-08T17:45:26.235Z,1.77
2019-03-08T17:48:01.969Z,1.72
2019-03-08T17:50:41.181Z,2.10
2019-03-08T17:53:11.188Z,2.62
2019-03-08T17:55:41.222Z,8.18
2019-03-08T17:58:20.208Z,3.72
2019-03-08T18:01:06.427Z,2.12
2019-03-08T18:03:52.140Z,1.70
2019-03-08T18:06:22.268Z,2.40
2019-03-08T18:09:04.231Z,2.15
2019-03-08T18:11:50.978Z,2.40
2019-03-08T18:14:30.184Z,3.47
2019-03-08T18:17:00.305Z,3.55
2019-03-08T18:19:30.350Z,3.60
2019-03-08T18:22:03.035Z,3.55
2019-03-08T18:24:35.492Z,2.92
2019-03-08T18:27:14.795Z,3.65
2019-03-08T18:29:54.399Z,3.60
2019-03-08T18:32:30.443Z,3.62
2019-03-08T18:35:21.819Z,3.75
2019-03-08T18:38:03.802Z,3.22
2019-03-08T18:40:33.839Z,2.77
2019-03-08T18:43:06.834Z,2.83
2019-03-08T18:45:48.979Z,3.47
2019-03-08T18:48:19.025Z,2.55
2019-03-08T18:50:49.052Z,2.77
2019-03-08T18:53:27.742Z,1.90
2019-03-08T18:56:03.757Z,1.80
2019-03-08T18:58:33.764Z,1.80
2019-03-08T19:01:19.933Z,2.35
2019-03-08T19:04:05.148Z,1.65
2019-03-08T19:06:44.729Z,1.98
2019-03-08T19:09:14.757Z,1.70
2019-03-08T19:11:56.979Z,1.65
2019-03-08T19:14:32.912Z,2.00
2019-03-08T19:17:05.740Z,2.65
2019-03-08T19:19:53.811Z,2.00
2019-03-08T19:22:29.522Z,1.95
2019-03-08T19:24:59.558Z,1.82
2019-03-08T19:27:35.976Z,2.80
2019-03-08T19:30:23.386Z,2.00
2019-03-08T19:33:09.820Z,2.40
2019-03-08T19:35:51.831Z,2.10
2019-03-08T19:38:30.527Z,2.33
2019-03-08T19:41:03.717Z,2.30
2019-03-08T19:43:33.765Z,2.80
2019-03-08T19:46:06.228Z,2.60
2019-03-08T19:48:39.065Z,2.50
2019-03-08T19:51:11.770Z,2.90
2019-03-08T19:53:41.813Z,2.25
2019-03-08T19:56:11.823Z,2.33
2019-03-08T19:58:58.117Z,2.35
2019-03-08T20:01:43.234Z,2.87
2019-03-08T20:04:16.131Z,2.22
2019-03-08T20:07:02.635Z,3.40
2019-03-08T20:09:44.875Z,2.62
2019-03-08T20:12:14.908Z,3.10
2019-03-08T20:15:01.413Z,3.12
2019-03-08T20:17:34.470Z,2.95
2019-03-08T20:20:20.192Z,3.95
2019-03-08T20:22:59.332Z,2.85
2019-03-08T20:25:29.358Z,2.67
2019-03-08T20:28:08.417Z,2.90
2019-03-08T20:30:41.391Z,2.72
2019-03-08T20:33:11.419Z,3.30
2019-03-08T20:35:47.337Z,3.85
2019-03-08T20:38:35.199Z,3.55
2019-03-08T20:41:07.907Z,5.30
2019-03-08T20:43:40.407Z,3.10
2019-03-08T20:46:27.003Z,4.83
2019-03-08T20:48:55.735Z,3.17
2019-03-08T20:51:24.720Z,3.02
2019-03-08T20:53:53.108Z,3.30
2019-03-08T20:56:21.489Z,3.33
2019-03-08T20:58:49.880Z,3.30
2019-03-08T21:01:18.264Z,3.27
2019-03-08T21:03:46.644Z,4.12
2019-03-08T21:06:15.019Z,3.80
2019-03-08T21:08:43.413Z,4.12
2019-03-08T21:11:11.790Z,4.83
2019-03-08T21:13:40.167Z,2.70
2019-03-08T21:16:08.923Z,2.98
2019-03-08T21:18:37.319Z,2.25
2019-03-08T21:21:05.712Z,2.30
2019-03-08T21:23:34.380Z,2.47
2019-03-08T21:26:02.751Z,2.10
2019-03-08T21:28:31.147Z,2.67
2019-03-08T21:30:59.523Z,2.62
2019-03-08T21:33:27.899Z,2.35
2019-03-08T21:35:56.296Z,2.00
2019-03-08T21:38:24.683Z,1.82
2019-03-08T21:40:53.067Z,2.33
2019-03-08T21:43:21.449Z,1.98
2019-03-08T21:45:49.845Z,2.30
2019-03-08T21:48:18.223Z,1.82
2019-03-08T21:50:46.627Z,1.50
2019-03-08T21:53:15.011Z,2.33
2019-03-08T21:55:43.476Z,1.90
2019-03-08T21:58:12.635Z,1.77
2019-03-08T22:00:41.028Z,2.60
2019-03-08T22:03:09.406Z,2.12
2019-03-08T22:05:42.293Z,1.60
2019-03-08T22:08:17.449Z,2.42
2019-03-08T22:10:44.027Z,2.00
2019-03-08T22:13:12.433Z,1.95
2019-03-08T22:15:41.221Z,1.65
2019-03-08T22:18:09.917Z,1.95
2019-03-08T22:20:38.304Z,1.65
2019-03-08T22:23:06.946Z,2.12
2019-03-08T22:25:35.334Z,1.85
2019-03-08T22:28:03.716Z,1.35
2019-03-08T22:30:32.527Z,1.45
2019-03-08T22:33:00.909Z,1.98
2019-03-08T22:35:29.295Z,1.70
2019-03-08T22:37:57.671Z,1.75
2019-03-08T22:40:26.061Z,1.80
2019-03-08T22:42:54.445Z,2.05
2019-03-08T22:45:22.822Z,1.90
2019-03-08T22:47:51.207Z,1.72
2019-03-08T22:50:20.059Z,1.80
2019-03-08T22:52:48.448Z,2.45
2019-03-08T22:55:16.842Z,1.65
2019-03-08T22:57:45.229Z,1.47
2019-03-08T23:00:21.673Z,2.10
2019-03-08T23:02:50.386Z,1.98
2019-03-08T23:05:18.771Z,2.12
2019-03-08T23:07:47.151Z,1.70
2019-03-08T23:10:15.524Z,2.33
2019-03-08T23:12:43.910Z,1.90
2019-03-08T23:15:12.280Z,1.70
2019-03-08T23:17:40.663Z,2.02
2019-03-08T23:20:09.131Z,1.80
2019-03-08T23:22:37.510Z,2.05
2019-03-08T23:25:05.892Z,2.45
2019-03-08T23:27:35.926Z,2.55
2019-03-08T23:30:07.085Z,2.10
2019-03-08T23:32:36.740Z,2.30
2019-03-08T23:35:07.055Z,2.20
2019-03-08T23:37:35.461Z,1.90
2019-03-08T23:40:05.211Z,2.17
2019-03-08T23:42:33.596Z,1.92
2019-03-08T23:45:01.975Z,2.00
2019-03-08T23:47:30.407Z,1.70
2019-03-08T23:49:58.779Z,1.82
2019-03-08T23:52:27.172Z,2.10
2019-03-08T23:54:55.923Z,2.00
2019-03-08T23:57:24.319Z,1.75
2019-03-08T23:59:52.696Z,2.10
